Metar z pełnej godziny Komunikat METAR ze strony awiacja.imgw.pl Metar G00 EPZG METAR EPZG 231300Z 25009KT 220V300 CAVOK 23/14 Q1010 =